This is the latest recevied weather packets stored in our database for station/object KI7CSN-13. If no packets are shown the sender has not sent any weather packets the latest 10 day(s).
| Time | Temp. | Humidity | Pressure | Rain* | Wind** | Luminosity | Snow |
|---|---|---|---|---|---|---|---|
| 1777919263 | 16.11° C | 47% | 980.8 hPa | 0 mm | - | - | - |
| 1777918963 | 16.67° C | 48% | 980.8 hPa | 0 mm | - | - | - |
| 1777918663 | 16.67° C | 49% | 981 hPa | 0 mm | - | - | - |
| 1777918363 | 16.11° C | 50% | 980.8 hPa | 0 mm | - | - | - |
| 1777918063 | 16.67° C | 49% | 980.8 hPa | 0 mm | - | - | - |
| 1777917763 | 16.11° C | 50% | 980.7 hPa | 0 mm | - | - | - |
| 1777917463 | 16.67° C | 49% | 980.7 hPa | 0 mm | - | - | - |
| 1777917163 | 16.11° C | 50% | 980.6 hPa | 0 mm | - | - | - |
| 1777916863 | 16.11° C | 50% | 980.7 hPa | 0 mm | - | - | - |
| 1777916563 | 16.11° C | 53% | 980.6 hPa | 0 mm | - | - | - |
| 1777916263 | 16.11° C | 50% | 980.6 hPa | 0 mm | - | - | - |
| 1777915963 | 16.67° C | 49% | 980.6 hPa | 0 mm | - | - | - |
| 1777915663 | 16.67° C | 49% | 980.6 hPa | 0 mm | - | - | - |
| 1777915363 | 15.56° C | 52% | 980.7 hPa | 0 mm | - | - | - |
| 1777915063 | 15.56° C | 53% | 980.7 hPa | 0 mm | - | - | - |
| 1777914763 | 15.56° C | 52% | 980.5 hPa | 0 mm | - | - | - |
| 1777914463 | 15.56° C | 54% | 980.5 hPa | 0 mm | - | - | - |
| 1777914163 | 15.56° C | 53% | 980.5 hPa | 0 mm | - | - | - |
| 1777913863 | 16.11° C | 53% | 980.5 hPa | 0 mm | - | - | - |
| 1777913563 | 16.11° C | 52% | 980.5 hPa | 0 mm | - | - | - |
| 1777913263 | 15.56° C | 53% | 980.4 hPa | 0 mm | - | - | - |
| 1777912963 | 15.56° C | 54% | 980.3 hPa | 0 mm | - | - | - |
| 1777912663 | 15.56° C | 54% | 980.4 hPa | 0 mm | - | - | - |
| 1777912363 | 15.56° C | 54% | 980.4 hPa | 0 mm | - | - | - |
| 1777912063 | 15.56° C | 54% | 980.4 hPa | 0 mm | - | - | - |
* Rain latest hour (hover to see other rain measurements)
** Current wind speed in m/s (hover to see current wind gust speed)